sensor_id;sensor_type;location;lat;lon;timestamp;P1;durP1;ratioP1;P2;durP2;ratioP2
79706;SDS011;69200;53.612;-2.416;2023-08-31T00:00:43;7.40;;;1.33;;
79706;SDS011;69200;53.612;-2.416;2023-08-31T00:03:09;8.43;;;1.35;;
79706;SDS011;69200;53.612;-2.416;2023-08-31T00:05:41;3.75;;;1.38;;
79706;SDS011;69200;53.612;-2.416;2023-08-31T00:08:08;5.53;;;1.33;;
79706;SDS011;69200;53.612;-2.416;2023-08-31T00:10:34;7.80;;;1.27;;
79706;SDS011;69200;53.612;-2.416;2023-08-31T00:13:01;5.90;;;1.17;;
79706;SDS011;69200;53.612;-2.416;2023-08-31T00:15:27;4.97;;;1.60;;
79706;SDS011;69200;53.612;-2.416;2023-08-31T00:17:53;4.13;;;1.13;;
79706;SDS011;69200;53.612;-2.416;2023-08-31T00:20:19;5.05;;;1.40;;
79706;SDS011;69200;53.612;-2.416;2023-08-31T00:22:44;4.60;;;1.40;;
79706;SDS011;69200;53.612;-2.416;2023-08-31T00:25:11;4.57;;;1.15;;
79706;SDS011;69200;53.612;-2.416;2023-08-31T00:27:37;7.85;;;1.40;;
79706;SDS011;69200;53.612;-2.416;2023-08-31T00:30:05;4.65;;;1.20;;
79706;SDS011;69200;53.612;-2.416;2023-08-31T00:32:34;6.07;;;1.27;;
79706;SDS011;69200;53.612;-2.416;2023-08-31T00:34:59;6.97;;;1.27;;
79706;SDS011;69200;53.612;-2.416;2023-08-31T00:37:25;4.85;;;1.17;;
79706;SDS011;69200;53.612;-2.416;2023-08-31T00:39:50;5.85;;;1.30;;
79706;SDS011;69200;53.612;-2.416;2023-08-31T00:42:17;4.85;;;1.13;;
79706;SDS011;69200;53.612;-2.416;2023-08-31T00:44:43;5.38;;;1.30;;
79706;SDS011;69200;53.612;-2.416;2023-08-31T00:47:08;3.78;;;0.93;;
79706;SDS011;69200;53.612;-2.416;2023-08-31T00:49:34;6.55;;;1.38;;
79706;SDS011;69200;53.612;-2.416;2023-08-31T00:52:00;5.85;;;1.25;;
79706;SDS011;69200;53.612;-2.416;2023-08-31T00:54:26;7.10;;;1.50;;
79706;SDS011;69200;53.612;-2.416;2023-08-31T00:56:55;5.50;;;1.40;;
79706;SDS011;69200;53.612;-2.416;2023-08-31T01:02:02;8.43;;;1.20;;
79706;SDS011;69200;53.612;-2.416;2023-08-31T01:04:41;4.07;;;1.10;;
79706;SDS011;69200;53.612;-2.416;2023-08-31T01:10:18;4.72;;;1.50;;
79706;SDS011;69200;53.612;-2.416;2023-08-31T01:12:52;5.95;;;1.90;;
79706;SDS011;69200;53.612;-2.416;2023-08-31T01:15:21;6.72;;;1.50;;
79706;SDS011;69200;53.612;-2.416;2023-08-31T01:17:48;4.53;;;1.50;;
79706;SDS011;69200;53.612;-2.416;2023-08-31T01:20:19;5.40;;;2.15;;
79706;SDS011;69200;53.612;-2.416;2023-08-31T01:23:00;5.45;;;1.98;;
79706;SDS011;69200;53.612;-2.416;2023-08-31T01:25:30;5.63;;;1.75;;
79706;SDS011;69200;53.612;-2.416;2023-08-31T01:27:58;9.00;;;1.77;;
79706;SDS011;69200;53.612;-2.416;2023-08-31T01:30:25;8.07;;;1.70;;
79706;SDS011;69200;53.612;-2.416;2023-08-31T01:32:54;6.85;;;1.50;;
79706;SDS011;69200;53.612;-2.416;2023-08-31T01:35:19;5.45;;;1.50;;
79706;SDS011;69200;53.612;-2.416;2023-08-31T01:37:55;6.32;;;1.58;;
79706;SDS011;69200;53.612;-2.416;2023-08-31T01:43:10;6.07;;;1.63;;
79706;SDS011;69200;53.612;-2.416;2023-08-31T01:45:36;7.00;;;1.80;;
79706;SDS011;69200;53.612;-2.416;2023-08-31T01:48:03;4.18;;;1.50;;
79706;SDS011;69200;53.612;-2.416;2023-08-31T01:50:31;6.70;;;1.75;;
79706;SDS011;69200;53.612;-2.416;2023-08-31T01:52:57;6.68;;;2.00;;
79706;SDS011;69200;53.612;-2.416;2023-08-31T01:55:24;5.63;;;1.63;;
79706;SDS011;69200;53.612;-2.416;2023-08-31T01:57:49;5.10;;;1.55;;
79706;SDS011;69200;53.612;-2.416;2023-08-31T02:00:16;5.97;;;1.98;;
79706;SDS011;69200;53.612;-2.416;2023-08-31T02:02:42;5.30;;;1.77;;
79706;SDS011;69200;53.612;-2.416;2023-08-31T02:05:07;7.03;;;2.10;;
79706;SDS011;69200;53.612;-2.416;2023-08-31T02:07:33;4.93;;;2.10;;
79706;SDS011;69200;53.612;-2.416;2023-08-31T02:09:59;7.70;;;2.10;;
79706;SDS011;69200;53.612;-2.416;2023-08-31T02:12:24;7.68;;;2.10;;
79706;SDS011;69200;53.612;-2.416;2023-08-31T02:14:49;8.07;;;2.15;;
79706;SDS011;69200;53.612;-2.416;2023-08-31T02:17:15;6.40;;;1.95;;
79706;SDS011;69200;53.612;-2.416;2023-08-31T02:19:40;10.07;;;2.58;;
79706;SDS011;69200;53.612;-2.416;2023-08-31T02:22:06;8.20;;;2.70;;
79706;SDS011;69200;53.612;-2.416;2023-08-31T02:24:32;6.60;;;2.80;;
79706;SDS011;69200;53.612;-2.416;2023-08-31T02:26:57;11.07;;;2.80;;
79706;SDS011;69200;53.612;-2.416;2023-08-31T02:29:23;9.60;;;2.80;;
79706;SDS011;69200;53.612;-2.416;2023-08-31T02:31:48;6.35;;;2.60;;
79706;SDS011;69200;53.612;-2.416;2023-08-31T02:34:14;10.32;;;3.00;;
79706;SDS011;69200;53.612;-2.416;2023-08-31T02:36:39;10.20;;;3.03;;
79706;SDS011;69200;53.612;-2.416;2023-08-31T02:39:05;7.20;;;2.97;;
79706;SDS011;69200;53.612;-2.416;2023-08-31T02:41:31;9.05;;;2.90;;
79706;SDS011;69200;53.612;-2.416;2023-08-31T02:43:56;8.80;;;2.75;;
79706;SDS011;69200;53.612;-2.416;2023-08-31T02:46:22;9.13;;;3.25;;
79706;SDS011;69200;53.612;-2.416;2023-08-31T02:48:47;8.43;;;3.17;;
79706;SDS011;69200;53.612;-2.416;2023-08-31T02:51:13;8.55;;;3.22;;
79706;SDS011;69200;53.612;-2.416;2023-08-31T02:53:39;10.32;;;3.60;;
79706;SDS011;69200;53.612;-2.416;2023-08-31T02:56:05;7.70;;;2.90;;
79706;SDS011;69200;53.612;-2.416;2023-08-31T02:58:31;9.25;;;2.92;;
79706;SDS011;69200;53.612;-2.416;2023-08-31T03:01:05;9.80;;;2.65;;
79706;SDS011;69200;53.612;-2.416;2023-08-31T03:03:36;8.68;;;3.40;;
79706;SDS011;69200;53.612;-2.416;2023-08-31T03:06:02;7.15;;;2.88;;
79706;SDS011;69200;53.612;-2.416;2023-08-31T03:08:27;9.25;;;3.30;;
79706;SDS011;69200;53.612;-2.416;2023-08-31T03:10:53;10.07;;;3.25;;
79706;SDS011;69200;53.612;-2.416;2023-08-31T03:13:18;7.50;;;3.45;;
79706;SDS011;69200;53.612;-2.416;2023-08-31T03:15:44;8.55;;;3.47;;
79706;SDS011;69200;53.612;-2.416;2023-08-31T03:18:09;9.45;;;3.33;;
79706;SDS011;69200;53.612;-2.416;2023-08-31T03:20:34;7.70;;;3.13;;
79706;SDS011;69200;53.612;-2.416;2023-08-31T03:23:00;11.55;;;3.70;;
79706;SDS011;69200;53.612;-2.416;2023-08-31T03:25:27;10.35;;;3.60;;
79706;SDS011;69200;53.612;-2.416;2023-08-31T03:27:52;11.30;;;3.65;;
79706;SDS011;69200;53.612;-2.416;2023-08-31T03:30:18;12.35;;;4.10;;
79706;SDS011;69200;53.612;-2.416;2023-08-31T03:32:43;9.60;;;4.13;;
79706;SDS011;69200;53.612;-2.416;2023-08-31T03:35:08;10.40;;;3.63;;
79706;SDS011;69200;53.612;-2.416;2023-08-31T03:37:34;16.30;;;4.47;;
79706;SDS011;69200;53.612;-2.416;2023-08-31T03:40:00;11.18;;;4.53;;
79706;SDS011;69200;53.612;-2.416;2023-08-31T03:42:25;8.73;;;3.95;;
79706;SDS011;69200;53.612;-2.416;2023-08-31T03:44:51;13.25;;;3.92;;
79706;SDS011;69200;53.612;-2.416;2023-08-31T03:47:16;11.95;;;4.75;;
79706;SDS011;69200;53.612;-2.416;2023-08-31T03:49:42;12.18;;;4.43;;
79706;SDS011;69200;53.612;-2.416;2023-08-31T03:52:07;14.90;;;4.50;;
79706;SDS011;69200;53.612;-2.416;2023-08-31T03:54:33;11.82;;;4.43;;
79706;SDS011;69200;53.612;-2.416;2023-08-31T03:57:00;12.45;;;4.30;;
79706;SDS011;69200;53.612;-2.416;2023-08-31T03:59:25;12.53;;;4.93;;
79706;SDS011;69200;53.612;-2.416;2023-08-31T04:01:50;9.73;;;4.28;;
79706;SDS011;69200;53.612;-2.416;2023-08-31T04:04:16;11.48;;;3.95;;
79706;SDS011;69200;53.612;-2.416;2023-08-31T04:09:08;9.32;;;3.95;;
79706;SDS011;69200;53.612;-2.416;2023-08-31T04:11:34;11.60;;;4.43;;
79706;SDS011;69200;53.612;-2.416;2023-08-31T04:13:59;9.75;;;4.53;;
79706;SDS011;69200;53.612;-2.416;2023-08-31T04:16:24;11.45;;;4.53;;
79706;SDS011;69200;53.612;-2.416;2023-08-31T04:18:50;11.80;;;4.57;;
79706;SDS011;69200;53.612;-2.416;2023-08-31T04:21:17;10.38;;;4.97;;
79706;SDS011;69200;53.612;-2.416;2023-08-31T04:26:12;13.32;;;4.53;;
79706;SDS011;69200;53.612;-2.416;2023-08-31T04:28:39;10.18;;;4.47;;
79706;SDS011;69200;53.612;-2.416;2023-08-31T04:31:06;15.57;;;4.88;;
79706;SDS011;69200;53.612;-2.416;2023-08-31T04:33:33;13.02;;;5.18;;
79706;SDS011;69200;53.612;-2.416;2023-08-31T04:35:59;12.05;;;4.60;;
79706;SDS011;69200;53.612;-2.416;2023-08-31T04:38:24;15.88;;;5.70;;
79706;SDS011;69200;53.612;-2.416;2023-08-31T04:40:50;12.80;;;5.22;;
79706;SDS011;69200;53.612;-2.416;2023-08-31T04:43:15;14.52;;;4.90;;
79706;SDS011;69200;53.612;-2.416;2023-08-31T04:45:40;12.90;;;4.90;;
79706;SDS011;69200;53.612;-2.416;2023-08-31T04:48:06;11.30;;;4.53;;
79706;SDS011;69200;53.612;-2.416;2023-08-31T04:50:31;14.82;;;4.90;;
79706;SDS011;69200;53.612;-2.416;2023-08-31T04:52:57;12.38;;;5.25;;
79706;SDS011;69200;53.612;-2.416;2023-08-31T04:55:23;11.40;;;3.95;;
79706;SDS011;69200;53.612;-2.416;2023-08-31T04:57:48;13.57;;;4.90;;
79706;SDS011;69200;53.612;-2.416;2023-08-31T05:00:14;14.70;;;6.10;;
79706;SDS011;69200;53.612;-2.416;2023-08-31T05:02:40;10.90;;;3.97;;
79706;SDS011;69200;53.612;-2.416;2023-08-31T05:05:05;11.10;;;4.28;;
79706;SDS011;69200;53.612;-2.416;2023-08-31T05:07:31;10.82;;;4.63;;
79706;SDS011;69200;53.612;-2.416;2023-08-31T05:09:56;13.95;;;5.10;;
79706;SDS011;69200;53.612;-2.416;2023-08-31T05:12:22;10.65;;;4.00;;
79706;SDS011;69200;53.612;-2.416;2023-08-31T05:14:47;11.88;;;4.75;;
79706;SDS011;69200;53.612;-2.416;2023-08-31T05:17:12;12.05;;;4.03;;
79706;SDS011;69200;53.612;-2.416;2023-08-31T05:19:38;13.85;;;4.10;;
79706;SDS011;69200;53.612;-2.416;2023-08-31T05:22:03;14.63;;;4.55;;
79706;SDS011;69200;53.612;-2.416;2023-08-31T05:24:31;12.30;;;4.07;;
79706;SDS011;69200;53.612;-2.416;2023-08-31T05:26:57;13.43;;;4.93;;
79706;SDS011;69200;53.612;-2.416;2023-08-31T05:29:22;11.00;;;4.45;;
79706;SDS011;69200;53.612;-2.416;2023-08-31T05:31:48;12.70;;;4.60;;
79706;SDS011;69200;53.612;-2.416;2023-08-31T05:34:16;12.90;;;5.10;;
79706;SDS011;69200;53.612;-2.416;2023-08-31T05:36:44;14.18;;;5.30;;
79706;SDS011;69200;53.612;-2.416;2023-08-31T05:39:10;13.38;;;3.85;;
79706;SDS011;69200;53.612;-2.416;2023-08-31T05:41:35;10.55;;;4.88;;
79706;SDS011;69200;53.612;-2.416;2023-08-31T05:44:01;11.88;;;4.30;;
79706;SDS011;69200;53.612;-2.416;2023-08-31T05:46:26;14.07;;;4.40;;
79706;SDS011;69200;53.612;-2.416;2023-08-31T05:48:52;13.88;;;5.55;;
79706;SDS011;69200;53.612;-2.416;2023-08-31T05:51:17;11.15;;;4.38;;
79706;SDS011;69200;53.612;-2.416;2023-08-31T05:53:43;13.43;;;5.00;;
79706;SDS011;69200;53.612;-2.416;2023-08-31T05:56:09;14.15;;;5.72;;
79706;SDS011;69200;53.612;-2.416;2023-08-31T05:58:35;14.00;;;4.68;;
79706;SDS011;69200;53.612;-2.416;2023-08-31T06:01:01;11.82;;;5.53;;
79706;SDS011;69200;53.612;-2.416;2023-08-31T06:03:30;15.32;;;5.68;;
79706;SDS011;69200;53.612;-2.416;2023-08-31T06:05:57;15.80;;;6.25;;
79706;SDS011;69200;53.612;-2.416;2023-08-31T06:08:23;15.82;;;5.97;;
79706;SDS011;69200;53.612;-2.416;2023-08-31T06:10:48;15.07;;;6.32;;
79706;SDS011;69200;53.612;-2.416;2023-08-31T06:13:14;17.52;;;5.78;;
79706;SDS011;69200;53.612;-2.416;2023-08-31T06:15:39;19.40;;;7.07;;
79706;SDS011;69200;53.612;-2.416;2023-08-31T06:18:05;21.02;;;7.13;;
79706;SDS011;69200;53.612;-2.416;2023-08-31T06:20:31;18.30;;;7.70;;
79706;SDS011;69200;53.612;-2.416;2023-08-31T06:22:56;20.92;;;7.85;;
79706;SDS011;69200;53.612;-2.416;2023-08-31T06:25:23;18.17;;;7.53;;
79706;SDS011;69200;53.612;-2.416;2023-08-31T06:27:48;20.08;;;7.60;;
79706;SDS011;69200;53.612;-2.416;2023-08-31T06:30:14;20.92;;;8.52;;
79706;SDS011;69200;53.612;-2.416;2023-08-31T06:32:42;21.38;;;7.13;;
79706;SDS011;69200;53.612;-2.416;2023-08-31T06:35:09;20.67;;;8.23;;
79706;SDS011;69200;53.612;-2.416;2023-08-31T06:37:34;15.32;;;6.25;;
79706;SDS011;69200;53.612;-2.416;2023-08-31T06:40:00;16.02;;;6.82;;
79706;SDS011;69200;53.612;-2.416;2023-08-31T06:42:25;20.75;;;7.63;;
79706;SDS011;69200;53.612;-2.416;2023-08-31T06:44:50;19.27;;;7.78;;
79706;SDS011;69200;53.612;-2.416;2023-08-31T06:47:16;20.23;;;8.18;;
79706;SDS011;69200;53.612;-2.416;2023-08-31T06:49:42;20.98;;;8.25;;
79706;SDS011;69200;53.612;-2.416;2023-08-31T06:52:08;17.40;;;6.57;;
79706;SDS011;69200;53.612;-2.416;2023-08-31T06:54:34;22.85;;;8.07;;
79706;SDS011;69200;53.612;-2.416;2023-08-31T06:57:00;14.88;;;6.57;;
79706;SDS011;69200;53.612;-2.416;2023-08-31T06:59:25;15.25;;;6.95;;
79706;SDS011;69200;53.612;-2.416;2023-08-31T07:01:51;18.88;;;6.53;;
79706;SDS011;69200;53.612;-2.416;2023-08-31T07:04:16;15.80;;;5.85;;
79706;SDS011;69200;53.612;-2.416;2023-08-31T07:06:42;17.13;;;6.63;;
79706;SDS011;69200;53.612;-2.416;2023-08-31T07:09:07;14.80;;;6.35;;
79706;SDS011;69200;53.612;-2.416;2023-08-31T07:11:33;11.70;;;5.43;;
79706;SDS011;69200;53.612;-2.416;2023-08-31T07:13:59;15.02;;;6.13;;
79706;SDS011;69200;53.612;-2.416;2023-08-31T07:16:24;13.38;;;5.65;;
79706;SDS011;69200;53.612;-2.416;2023-08-31T07:18:50;15.57;;;5.68;;
79706;SDS011;69200;53.612;-2.416;2023-08-31T07:21:15;10.85;;;4.57;;
79706;SDS011;69200;53.612;-2.416;2023-08-31T07:23:41;13.52;;;5.53;;
79706;SDS011;69200;53.612;-2.416;2023-08-31T07:26:07;15.82;;;5.20;;
79706;SDS011;69200;53.612;-2.416;2023-08-31T07:28:32;11.25;;;4.97;;
79706;SDS011;69200;53.612;-2.416;2023-08-31T07:31:02;16.05;;;5.53;;
79706;SDS011;69200;53.612;-2.416;2023-08-31T07:33:31;13.75;;;5.18;;
79706;SDS011;69200;53.612;-2.416;2023-08-31T07:36:00;12.75;;;5.10;;
79706;SDS011;69200;53.612;-2.416;2023-08-31T07:38:27;13.95;;;5.18;;
79706;SDS011;69200;53.612;-2.416;2023-08-31T07:40:53;10.95;;;4.20;;
79706;SDS011;69200;53.612;-2.416;2023-08-31T07:43:18;11.85;;;4.70;;
79706;SDS011;69200;53.612;-2.416;2023-08-31T07:45:44;8.48;;;4.15;;
79706;SDS011;69200;53.612;-2.416;2023-08-31T07:48:09;8.80;;;4.47;;
79706;SDS011;69200;53.612;-2.416;2023-08-31T07:50:35;12.98;;;5.07;;
79706;SDS011;69200;53.612;-2.416;2023-08-31T07:53:00;10.57;;;4.35;;
79706;SDS011;69200;53.612;-2.416;2023-08-31T07:55:27;10.55;;;3.70;;
79706;SDS011;69200;53.612;-2.416;2023-08-31T07:57:53;12.05;;;4.60;;
79706;SDS011;69200;53.612;-2.416;2023-08-31T08:00:18;10.27;;;4.35;;
79706;SDS011;69200;53.612;-2.416;2023-08-31T08:02:46;14.10;;;5.07;;
79706;SDS011;69200;53.612;-2.416;2023-08-31T08:05:12;13.07;;;4.55;;
79706;SDS011;69200;53.612;-2.416;2023-08-31T08:07:37;9.20;;;3.80;;
79706;SDS011;69200;53.612;-2.416;2023-08-31T08:10:03;8.85;;;3.65;;
79706;SDS011;69200;53.612;-2.416;2023-08-31T08:12:36;7.47;;;3.55;;
79706;SDS011;69200;53.612;-2.416;2023-08-31T08:15:02;14.50;;;4.25;;
79706;SDS011;69200;53.612;-2.416;2023-08-31T08:17:28;8.65;;;3.53;;
79706;SDS011;69200;53.612;-2.416;2023-08-31T08:19:53;10.23;;;3.47;;
79706;SDS011;69200;53.612;-2.416;2023-08-31T08:22:19;9.13;;;3.33;;
79706;SDS011;69200;53.612;-2.416;2023-08-31T08:24:45;9.10;;;3.75;;
79706;SDS011;69200;53.612;-2.416;2023-08-31T08:27:10;11.10;;;3.47;;
79706;SDS011;69200;53.612;-2.416;2023-08-31T08:29:36;10.35;;;3.78;;
79706;SDS011;69200;53.612;-2.416;2023-08-31T08:32:01;9.73;;;3.22;;
79706;SDS011;69200;53.612;-2.416;2023-08-31T08:34:28;9.88;;;3.05;;
79706;SDS011;69200;53.612;-2.416;2023-08-31T08:36:54;8.98;;;3.05;;
79706;SDS011;69200;53.612;-2.416;2023-08-31T08:39:19;8.45;;;3.05;;
79706;SDS011;69200;53.612;-2.416;2023-08-31T08:41:44;6.13;;;2.70;;
79706;SDS011;69200;53.612;-2.416;2023-08-31T08:44:11;8.95;;;2.33;;
79706;SDS011;69200;53.612;-2.416;2023-08-31T08:46:40;13.52;;;3.20;;
79706;SDS011;69200;53.612;-2.416;2023-08-31T08:49:06;9.60;;;3.15;;
79706;SDS011;69200;53.612;-2.416;2023-08-31T08:51:32;9.23;;;3.35;;
79706;SDS011;69200;53.612;-2.416;2023-08-31T08:53:59;9.00;;;2.75;;
79706;SDS011;69200;53.612;-2.416;2023-08-31T08:56:25;11.60;;;3.33;;
79706;SDS011;69200;53.612;-2.416;2023-08-31T08:58:51;8.80;;;2.95;;
79706;SDS011;69200;53.612;-2.416;2023-08-31T09:01:16;9.77;;;3.22;;
79706;SDS011;69200;53.612;-2.416;2023-08-31T09:03:43;8.50;;;2.85;;
79706;SDS011;69200;53.612;-2.416;2023-08-31T09:06:08;9.35;;;2.97;;
79706;SDS011;69200;53.612;-2.416;2023-08-31T09:08:35;9.70;;;3.13;;
79706;SDS011;69200;53.612;-2.416;2023-08-31T09:11:02;8.63;;;2.95;;
79706;SDS011;69200;53.612;-2.416;2023-08-31T09:13:28;8.07;;;2.88;;
79706;SDS011;69200;53.612;-2.416;2023-08-31T09:15:54;10.13;;;2.35;;
79706;SDS011;69200;53.612;-2.416;2023-08-31T09:18:23;9.05;;;2.90;;
79706;SDS011;69200;53.612;-2.416;2023-08-31T09:20:50;11.15;;;2.75;;
79706;SDS011;69200;53.612;-2.416;2023-08-31T09:23:17;9.13;;;2.50;;
79706;SDS011;69200;53.612;-2.416;2023-08-31T09:25:51;7.20;;;2.50;;
79706;SDS011;69200;53.612;-2.416;2023-08-31T09:28:19;8.73;;;2.90;;
79706;SDS011;69200;53.612;-2.416;2023-08-31T09:30:47;8.52;;;2.63;;
79706;SDS011;69200;53.612;-2.416;2023-08-31T09:33:14;7.07;;;2.40;;
79706;SDS011;69200;53.612;-2.416;2023-08-31T09:35:50;10.75;;;2.60;;
79706;SDS011;69200;53.612;-2.416;2023-08-31T09:38:16;7.45;;;3.33;;
79706;SDS011;69200;53.612;-2.416;2023-08-31T09:40:42;10.30;;;2.65;;
79706;SDS011;69200;53.612;-2.416;2023-08-31T09:43:08;8.38;;;2.45;;
79706;SDS011;69200;53.612;-2.416;2023-08-31T09:45:34;7.65;;;2.65;;
79706;SDS011;69200;53.612;-2.416;2023-08-31T09:48:00;8.93;;;2.58;;
79706;SDS011;69200;53.612;-2.416;2023-08-31T09:50:28;5.97;;;2.45;;
79706;SDS011;69200;53.612;-2.416;2023-08-31T09:53:02;9.10;;;2.30;;
79706;SDS011;69200;53.612;-2.416;2023-08-31T09:55:30;9.90;;;2.67;;
79706;SDS011;69200;53.612;-2.416;2023-08-31T09:57:58;6.25;;;2.40;;
79706;SDS011;69200;53.612;-2.416;2023-08-31T10:00:35;7.90;;;2.70;;
79706;SDS011;69200;53.612;-2.416;2023-08-31T10:03:05;7.85;;;2.33;;
79706;SDS011;69200;53.612;-2.416;2023-08-31T10:08:01;5.70;;;2.40;;
79706;SDS011;69200;53.612;-2.416;2023-08-31T10:10:27;6.95;;;2.03;;
79706;SDS011;69200;53.612;-2.416;2023-08-31T10:12:54;11.38;;;2.45;;
79706;SDS011;69200;53.612;-2.416;2023-08-31T10:15:21;5.45;;;2.20;;
79706;SDS011;69200;53.612;-2.416;2023-08-31T10:17:46;7.68;;;2.35;;
79706;SDS011;69200;53.612;-2.416;2023-08-31T10:20:13;7.60;;;2.25;;
79706;SDS011;69200;53.612;-2.416;2023-08-31T10:22:41;7.47;;;2.10;;
79706;SDS011;69200;53.612;-2.416;2023-08-31T10:25:08;5.38;;;2.13;;
79706;SDS011;69200;53.612;-2.416;2023-08-31T10:27:37;8.38;;;1.77;;
79706;SDS011;69200;53.612;-2.416;2023-08-31T10:36:08;7.93;;;2.15;;
79706;SDS011;69200;53.612;-2.416;2023-08-31T10:41:02;5.60;;;1.40;;
79706;SDS011;69200;53.612;-2.416;2023-08-31T10:43:42;10.07;;;1.40;;
79706;SDS011;69200;53.612;-2.416;2023-08-31T10:49:35;5.20;;;1.23;;
79706;SDS011;69200;53.612;-2.416;2023-08-31T10:51:36;5.50;;;1.40;;
79706;SDS011;69200;53.612;-2.416;2023-08-31T10:54:19;4.85;;;1.23;;
79706;SDS011;69200;53.612;-2.416;2023-08-31T10:59:40;4.10;;;1.00;;
79706;SDS011;69200;53.612;-2.416;2023-08-31T11:02:07;4.07;;;1.50;;
79706;SDS011;69200;53.612;-2.416;2023-08-31T11:04:52;4.40;;;1.23;;
79706;SDS011;69200;53.612;-2.416;2023-08-31T11:07:24;3.03;;;1.10;;
79706;SDS011;69200;53.612;-2.416;2023-08-31T11:09:51;5.18;;;1.35;;
79706;SDS011;69200;53.612;-2.416;2023-08-31T11:12:16;4.78;;;1.30;;
79706;SDS011;69200;53.612;-2.416;2023-08-31T11:14:41;4.18;;;1.33;;
79706;SDS011;69200;53.612;-2.416;2023-08-31T11:17:07;6.60;;;1.30;;
79706;SDS011;69200;53.612;-2.416;2023-08-31T11:19:34;4.53;;;1.30;;
79706;SDS011;69200;53.612;-2.416;2023-08-31T11:22:00;4.07;;;1.27;;
79706;SDS011;69200;53.612;-2.416;2023-08-31T11:24:32;5.75;;;1.13;;
79706;SDS011;69200;53.612;-2.416;2023-08-31T11:26:59;4.00;;;1.45;;
79706;SDS011;69200;53.612;-2.416;2023-08-31T11:29:29;5.90;;;1.63;;
79706;SDS011;69200;53.612;-2.416;2023-08-31T11:31:58;5.93;;;1.40;;
79706;SDS011;69200;53.612;-2.416;2023-08-31T11:36:50;4.43;;;1.70;;
79706;SDS011;69200;53.612;-2.416;2023-08-31T11:39:17;4.07;;;1.23;;
79706;SDS011;69200;53.612;-2.416;2023-08-31T11:41:43;5.75;;;1.25;;
79706;SDS011;69200;53.612;-2.416;2023-08-31T11:44:12;4.82;;;1.20;;
79706;SDS011;69200;53.612;-2.416;2023-08-31T11:46:41;3.40;;;1.02;;
79706;SDS011;69200;53.612;-2.416;2023-08-31T11:49:08;4.30;;;1.33;;
79706;SDS011;69200;53.612;-2.416;2023-08-31T11:51:34;3.95;;;1.00;;
79706;SDS011;69200;53.612;-2.416;2023-08-31T11:54:01;3.95;;;1.30;;
79706;SDS011;69200;53.612;-2.416;2023-08-31T11:56:38;4.45;;;1.38;;
79706;SDS011;69200;53.612;-2.416;2023-08-31T12:01:42;5.38;;;1.30;;
79706;SDS011;69200;53.612;-2.416;2023-08-31T12:06:40;6.00;;;1.10;;
79706;SDS011;69200;53.612;-2.416;2023-08-31T12:09:09;3.45;;;1.08;;
79706;SDS011;69200;53.612;-2.416;2023-08-31T12:11:35;3.88;;;1.17;;
79706;SDS011;69200;53.612;-2.416;2023-08-31T12:14:01;4.80;;;1.13;;
79706;SDS011;69200;53.612;-2.416;2023-08-31T12:16:35;4.63;;;0.95;;
79706;SDS011;69200;53.612;-2.416;2023-08-31T12:19:04;5.72;;;1.88;;
79706;SDS011;69200;53.612;-2.416;2023-08-31T12:21:33;3.08;;;0.90;;
79706;SDS011;69200;53.612;-2.416;2023-08-31T12:23:59;3.50;;;1.10;;
79706;SDS011;69200;53.612;-2.416;2023-08-31T12:26:25;4.38;;;1.10;;
79706;SDS011;69200;53.612;-2.416;2023-08-31T12:28:51;6.13;;;1.10;;
79706;SDS011;69200;53.612;-2.416;2023-08-31T12:31:16;4.28;;;1.10;;
79706;SDS011;69200;53.612;-2.416;2023-08-31T12:33:42;5.93;;;0.98;;
79706;SDS011;69200;53.612;-2.416;2023-08-31T12:36:08;5.50;;;1.40;;
79706;SDS011;69200;53.612;-2.416;2023-08-31T12:38:33;5.03;;;1.20;;
79706;SDS011;69200;53.612;-2.416;2023-08-31T12:40:59;3.72;;;1.38;;
79706;SDS011;69200;53.612;-2.416;2023-08-31T12:43:24;3.53;;;1.00;;
79706;SDS011;69200;53.612;-2.416;2023-08-31T12:45:49;4.10;;;1.48;;
79706;SDS011;69200;53.612;-2.416;2023-08-31T12:48:15;5.63;;;1.30;;
79706;SDS011;69200;53.612;-2.416;2023-08-31T12:50:40;5.47;;;1.00;;
79706;SDS011;69200;53.612;-2.416;2023-08-31T12:53:07;5.07;;;1.10;;
79706;SDS011;69200;53.612;-2.416;2023-08-31T12:55:33;3.83;;;1.00;;
79706;SDS011;69200;53.612;-2.416;2023-08-31T12:57:58;4.35;;;1.10;;
79706;SDS011;69200;53.612;-2.416;2023-08-31T13:00:24;4.85;;;1.20;;
79706;SDS011;69200;53.612;-2.416;2023-08-31T13:02:50;2.97;;;1.00;;
79706;SDS011;69200;53.612;-2.416;2023-08-31T13:05:16;3.15;;;0.90;;
79706;SDS011;69200;53.612;-2.416;2023-08-31T13:07:42;5.95;;;1.15;;
79706;SDS011;69200;53.612;-2.416;2023-08-31T13:10:07;5.68;;;1.13;;
79706;SDS011;69200;53.612;-2.416;2023-08-31T13:12:33;3.40;;;1.02;;
79706;SDS011;69200;53.612;-2.416;2023-08-31T13:14:59;4.70;;;1.08;;
79706;SDS011;69200;53.612;-2.416;2023-08-31T13:17:25;3.90;;;1.08;;
79706;SDS011;69200;53.612;-2.416;2023-08-31T13:19:57;4.40;;;1.20;;
79706;SDS011;69200;53.612;-2.416;2023-08-31T13:22:24;6.22;;;1.33;;
79706;SDS011;69200;53.612;-2.416;2023-08-31T13:24:51;4.25;;;1.38;;
79706;SDS011;69200;53.612;-2.416;2023-08-31T13:27:17;5.82;;;1.25;;
79706;SDS011;69200;53.612;-2.416;2023-08-31T13:29:43;5.53;;;1.13;;
79706;SDS011;69200;53.612;-2.416;2023-08-31T13:32:08;5.85;;;1.48;;
79706;SDS011;69200;53.612;-2.416;2023-08-31T13:34:34;3.17;;;1.17;;
79706;SDS011;69200;53.612;-2.416;2023-08-31T13:37:00;4.85;;;1.15;;
79706;SDS011;69200;53.612;-2.416;2023-08-31T13:39:29;6.45;;;1.20;;
79706;SDS011;69200;53.612;-2.416;2023-08-31T13:41:55;5.18;;;1.30;;
79706;SDS011;69200;53.612;-2.416;2023-08-31T13:44:20;5.60;;;1.20;;
79706;SDS011;69200;53.612;-2.416;2023-08-31T13:46:46;4.38;;;1.40;;
79706;SDS011;69200;53.612;-2.416;2023-08-31T13:49:13;6.18;;;1.33;;
79706;SDS011;69200;53.612;-2.416;2023-08-31T13:51:38;4.55;;;1.30;;
79706;SDS011;69200;53.612;-2.416;2023-08-31T13:54:04;5.82;;;1.60;;
79706;SDS011;69200;53.612;-2.416;2023-08-31T13:56:32;2.53;;;0.88;;
79706;SDS011;69200;53.612;-2.416;2023-08-31T13:59:00;3.97;;;1.30;;
79706;SDS011;69200;53.612;-2.416;2023-08-31T14:01:25;6.13;;;1.60;;
79706;SDS011;69200;53.612;-2.416;2023-08-31T14:03:51;5.07;;;1.30;;
79706;SDS011;69200;53.612;-2.416;2023-08-31T14:06:17;7.07;;;1.58;;
79706;SDS011;69200;53.612;-2.416;2023-08-31T14:08:42;6.57;;;1.30;;
79706;SDS011;69200;53.612;-2.416;2023-08-31T14:11:07;6.40;;;1.55;;
79706;SDS011;69200;53.612;-2.416;2023-08-31T14:13:33;5.10;;;1.52;;
79706;SDS011;69200;53.612;-2.416;2023-08-31T14:15:59;4.82;;;1.67;;
79706;SDS011;69200;53.612;-2.416;2023-08-31T14:18:28;6.22;;;2.15;;
79706;SDS011;69200;53.612;-2.416;2023-08-31T14:20:55;4.40;;;1.67;;
79706;SDS011;69200;53.612;-2.416;2023-08-31T14:23:21;6.25;;;1.50;;
79706;SDS011;69200;53.612;-2.416;2023-08-31T14:25:47;7.97;;;1.75;;
79706;SDS011;69200;53.612;-2.416;2023-08-31T14:28:13;6.82;;;1.98;;
79706;SDS011;69200;53.612;-2.416;2023-08-31T14:30:38;6.00;;;1.90;;
79706;SDS011;69200;53.612;-2.416;2023-08-31T14:33:04;6.40;;;1.90;;
79706;SDS011;69200;53.612;-2.416;2023-08-31T14:35:30;6.50;;;1.95;;
79706;SDS011;69200;53.612;-2.416;2023-08-31T14:37:56;6.05;;;1.75;;
79706;SDS011;69200;53.612;-2.416;2023-08-31T14:40:22;4.95;;;1.83;;
79706;SDS011;69200;53.612;-2.416;2023-08-31T14:42:48;5.32;;;1.77;;
79706;SDS011;69200;53.612;-2.416;2023-08-31T14:45:13;6.13;;;1.90;;
79706;SDS011;69200;53.612;-2.416;2023-08-31T14:47:39;8.07;;;1.80;;
79706;SDS011;69200;53.612;-2.416;2023-08-31T14:50:04;5.63;;;1.45;;
79706;SDS011;69200;53.612;-2.416;2023-08-31T14:52:30;5.93;;;1.80;;
79706;SDS011;69200;53.612;-2.416;2023-08-31T14:54:56;6.65;;;1.90;;
79706;SDS011;69200;53.612;-2.416;2023-08-31T14:57:22;7.75;;;2.00;;
79706;SDS011;69200;53.612;-2.416;2023-08-31T14:59:47;6.20;;;1.95;;
79706;SDS011;69200;53.612;-2.416;2023-08-31T15:02:12;5.47;;;1.90;;
79706;SDS011;69200;53.612;-2.416;2023-08-31T15:04:39;4.55;;;1.70;;